Portada
METAR-TAF:

METAR-TAF

Aeropuertos :

Base aérea de Thule

Thule, Groenlandia

latitud: 76-32N, longitud: 068-42W, altitud: 77 m

Observación

El informe se hizo hace 1 hora y 0 minutos, a las 04:56 UTC
Viento 8 kt del este
Temperatura -33°C
Humedad 60%
Presión 1005 hPa
Visibilidad 10 km o más
Cielo despejado

METAR: BGTL 160456Z AUTO 10008KT 9999 CLR M33/M38 A2968 RMK AO2 SLP047 T13281376 TSNO CHINO RWY26 $

Hora: 01:56 (05:56 UTC)

Pronóstico

El informe se hizo hace 11 horas y 48 minutos, a las 18:08 UTC
Pronóstico válido del 15 a las 18 UTC al 16 a las 24 UTC
Viento 9 kt del este-sureste, variando entre este y sur
Visibilidad: 1610 m
Nubes dispersas a una altura de 15000 ft

TAF: BGTL 151808Z 1518/1624 12009KT 9999 SCT150 QNH2955INS WND 080V180 TXM32/1521Z TNM35/1518Z LAST NO AMDS AFT 1518 NEXT 1610

Observaciones y pronósticos meteorológicos de más de 4000 aeropuertos (mensajes METAR y TAF).

Los puntos amarillos y rojos representan las estaciones disponibles.

Ponga el ratón en el punto deseado para ver el nombre de la estación.

Haga clic para ver las observaciones y los pronósticos meteorológicos.

Para cambiar el mapa : haga clic en los botones verdes con una cruz de color negro para hacer un zoom, en el botón verde con un guión para alejar o en las flechas verdes para mapas adyacentes.


METAR-TAF: